Time;durP1;ratioP1;P1;durP2;ratioP2;P2;SDS_P1;SDS_P2;PMS_P1;PMS_P2;Temp;Humidity;BMP_temperature;BMP_pressure;BME280_temperature;BME280_humidity;BME280_pressure;Samples;Min_cycle;Max_cycle;Signal;HPM_P1;HPM_P2
2022/03/23 00:01:55;;;;;;;35.00;16.48;;;;;;;5.48;65.48;102741.25;5037064;28;20325;-77
2022/03/23 00:04:21;;;;;;;33.80;15.32;;;;;;;5.47;65.78;102739.59;5042528;28;20024;-77
2022/03/23 00:06:47;;;;;;;29.67;16.65;;;;;;;5.48;65.88;102741.25;5057566;28;20033;-77
2022/03/23 00:09:14;;;;;;;38.97;17.00;;;;;;;5.46;65.99;102737.94;5044141;28;20040;-77
2022/03/23 00:11:40;;;;;;;31.05;14.82;;;;;;;5.44;66.37;102740.59;5057659;28;20031;-77
2022/03/23 00:14:06;;;;;;;27.75;14.93;;;;;;;5.41;66.37;102740.75;5041948;28;20779;-77
2022/03/23 00:16:35;;;;;;;31.50;15.57;;;;;;;5.36;66.60;102739.31;5040662;28;20076;-78
2022/03/23 00:19:02;;;;;;;32.00;15.80;;;;;;;5.33;67.22;102749.72;5041576;28;20051;-77
2022/03/23 00:21:27;;;;;;;30.30;16.08;;;;;;;5.30;67.52;102737.84;5041533;28;20037;-77
2022/03/23 00:23:53;;;;;;;33.70;16.52;;;;;;;5.27;67.47;102743.13;5042438;28;20037;-77
2022/03/23 00:26:19;;;;;;;34.92;16.23;;;;;;;5.24;68.01;102743.31;5039091;28;20036;-77
2022/03/23 00:28:46;;;;;;;37.55;17.30;;;;;;;5.20;68.01;102742.63;5024146;28;20246;-77
2022/03/23 00:31:11;;;;;;;31.45;15.40;;;;;;;5.17;68.02;102745.31;5038660;28;20578;-77
2022/03/23 00:33:37;;;;;;;27.38;15.02;;;;;;;5.13;68.60;102742.97;5055265;28;20397;-77
2022/03/23 00:36:04;;;;;;;31.83;16.13;;;;;;;5.08;68.50;102740.63;5040921;28;20041;-77
2022/03/23 00:38:29;;;;;;;32.17;15.32;;;;;;;5.05;68.36;102740.78;5039048;28;20403;-78
2022/03/23 00:40:55;;;;;;;33.25;14.38;;;;;;;5.00;68.61;102748.69;5029071;28;20040;-77
2022/03/23 00:43:21;;;;;;;31.98;15.20;;;;;;;4.94;68.87;102745.59;5034458;28;20561;-77
2022/03/23 00:45:47;;;;;;;35.97;15.55;;;;;;;4.90;69.27;102738.91;5036133;28;20033;-77
2022/03/23 00:48:12;;;;;;;28.38;15.30;;;;;;;4.87;69.48;102748.44;5024419;28;20044;-77
2022/03/23 00:50:38;;;;;;;32.70;16.05;;;;;;;4.86;69.77;102744.22;5024606;28;20059;-77
2022/03/23 00:53:03;;;;;;;34.78;17.17;;;;;;;4.87;70.10;102753.56;5038341;28;20043;-77
2022/03/23 00:55:29;;;;;;;32.13;15.27;;;;;;;4.86;70.27;102743.38;5022759;28;20123;-77
2022/03/23 00:57:56;;;;;;;33.55;15.13;;;;;;;4.83;70.33;102740.94;5024589;28;20066;-77
2022/03/23 01:00:22;;;;;;;30.98;14.90;;;;;;;4.79;69.92;102747.13;5026162;28;20036;-77
2022/03/23 01:02:48;;;;;;;32.78;16.20;;;;;;;4.74;69.65;102744.75;5026528;28;20051;-77
2022/03/23 01:05:15;;;;;;;28.60;13.65;;;;;;;4.67;69.98;102749.38;5054570;28;20125;-77
2022/03/23 01:07:42;;;;;;;35.70;15.52;;;;;;;4.62;70.09;102743.59;5038867;28;20052;-77
2022/03/23 01:10:11;;;;;;;30.67;14.98;;;;;;;4.57;70.19;102747.28;5028338;28;20074;-77
2022/03/23 01:12:42;;;;;;;26.60;14.10;;;;;;;4.56;70.68;102746.44;5039463;28;20028;-77
2022/03/23 01:15:09;;;;;;;31.20;14.95;;;;;;;4.57;70.44;102739.56;5059634;28;20051;-77
2022/03/23 01:17:36;;;;;;;32.20;15.15;;;;;;;4.59;70.44;102737.75;5024466;28;20032;-77
2022/03/23 01:20:03;;;;;;;35.10;16.40;;;;;;;4.58;70.72;102736.09;5058585;28;20452;-77
2022/03/23 01:22:29;;;;;;;33.65;15.57;;;;;;;4.56;70.49;102743.03;5023943;28;20048;-77
2022/03/23 01:24:54;;;;;;;37.92;16.02;;;;;;;4.55;70.51;102741.38;5044657;28;20468;-77
2022/03/23 01:27:20;;;;;;;32.10;16.30;;;;;;;4.54;70.54;102739.69;5041859;28;20040;-77
2022/03/23 01:29:47;;;;;;;35.10;16.17;;;;;;;4.52;70.96;102741.50;5027372;28;20527;-77
2022/03/23 01:32:12;;;;;;;30.80;15.35;;;;;;;4.41;70.84;102732.56;5040765;28;20032;-77
2022/03/23 01:34:38;;;;;;;33.70;16.30;;;;;;;4.34;71.08;102732.91;5029510;28;20578;-77
2022/03/23 01:37:03;;;;;;;29.85;15.57;;;;;;;4.28;71.46;102739.13;5027137;28;20033;-77
2022/03/23 01:39:29;;;;;;;34.25;15.80;;;;;;;4.24;71.82;102740.19;5041510;28;20044;-77
2022/03/23 01:41:55;;;;;;;30.92;16.52;;;;;;;4.20;71.32;102738.63;5038939;28;20060;-77
2022/03/23 01:44:22;;;;;;;34.70;17.20;;;;;;;4.15;71.73;102733.69;5026351;28;20503;-77
2022/03/23 01:46:58;;;;;;;31.88;15.30;;;;;;;4.14;72.04;102747.41;5055764;28;20040;-77
2022/03/23 01:49:24;;;;;;;30.35;15.68;;;;;;;4.06;72.02;102745.19;5029628;28;20029;-77
2022/03/23 01:51:49;;;;;;;31.23;16.25;;;;;;;3.97;72.66;102737.06;5043831;28;20459;-77
2022/03/23 01:54:14;;;;;;;33.25;16.30;;;;;;;3.87;72.70;102745.16;5058543;28;20219;-77
2022/03/23 01:56:41;;;;;;;40.75;19.05;;;;;;;3.82;72.77;102735.97;5061315;28;20254;-77
2022/03/23 01:59:08;;;;;;;36.03;19.50;;;;;;;3.77;72.96;102737.88;5045270;28;20636;-77
2022/03/23 02:01:35;;;;;;;42.38;19.70;;;;;;;3.70;73.57;102739.88;5043319;28;20033;-77
2022/03/23 02:04:01;;;;;;;35.83;18.67;;;;;;;3.63;75.17;102741.03;5042845;28;20444;-77
2022/03/23 02:06:27;;;;;;;37.83;18.88;;;;;;;3.58;75.45;102730.13;5042539;28;20039;-77
2022/03/23 02:08:53;;;;;;;35.63;17.27;;;;;;;3.54;75.28;102729.41;5028244;28;20385;-77
2022/03/23 02:11:19;;;;;;;40.42;18.38;;;;;;;3.54;75.80;102737.09;5026977;28;20135;-77
2022/03/23 02:13:45;;;;;;;42.53;17.90;;;;;;;3.57;76.04;102731.84;5045647;28;20498;-77
2022/03/23 02:16:10;;;;;;;35.35;17.65;;;;;;;3.59;75.99;102727.50;5040984;28;20036;-77
2022/03/23 02:18:36;;;;;;;37.53;18.98;;;;;;;3.63;76.00;102725.66;5022791;28;20409;-77
2022/03/23 02:21:02;;;;;;;40.13;19.15;;;;;;;3.65;75.35;102732.38;5042277;28;20535;-77
2022/03/23 02:23:32;;;;;;;52.90;19.83;;;;;;;3.63;75.13;102729.03;5043433;28;20119;-77
2022/03/23 02:26:00;;;;;;;34.83;17.58;;;;;;;3.56;74.96;102722.50;5044207;28;20032;-77
2022/03/23 02:28:27;;;;;;;36.63;18.50;;;;;;;3.49;75.25;102719.34;5022249;28;20032;-77
2022/03/23 02:30:53;;;;;;;43.97;19.77;;;;;;;3.46;75.37;102718.63;5041900;28;20069;-77
2022/03/23 02:33:22;;;;;;;40.10;19.08;;;;;;;3.41;75.05;102716.28;5025556;28;20555;-76
2022/03/23 02:35:50;;;;;;;34.65;18.00;;;;;;;3.39;75.46;102714.66;5025512;28;20499;-77
2022/03/23 02:38:17;;;;;;;39.85;18.88;;;;;;;3.35;75.47;102716.50;5059580;28;20123;-77
2022/03/23 02:40:46;;;;;;;41.30;18.23;;;;;;;3.34;75.41;102711.47;5044812;28;20515;-77
2022/03/23 02:43:11;;;;;;;32.22;17.65;;;;;;;3.28;75.25;102721.06;5060760;28;20045;-77
2022/03/23 02:45:37;;;;;;;40.45;18.90;;;;;;;3.24;75.60;102716.97;5039641;28;20552;-77
2022/03/23 02:48:06;;;;;;;37.33;19.30;;;;;;;3.19;75.57;102711.16;5027757;28;20051;-77
2022/03/23 02:50:35;;;;;;;40.45;18.98;;;;;;;3.17;75.71;102710.41;5028516;28;20040;-77
2022/03/23 03:01:54;;;;;;;39.17;19.67;;;;;;;3.19;76.16;102726.56;5040734;28;20040;-77
2022/03/23 03:04:23;;;;;;;42.47;18.23;;;;;;;3.18;76.27;102721.47;5044998;28;20514;-77
2022/03/23 03:06:49;;;;;;;38.72;18.30;;;;;;;3.19;76.51;102721.44;5030215;28;20408;-77
2022/03/23 03:09:15;;;;;;;38.55;17.83;;;;;;;3.18;76.24;102722.31;5040642;28;20033;-77
2022/03/23 03:11:43;;;;;;;33.70;18.70;;;;;;;3.18;76.30;102730.00;5041217;28;20119;-77
2022/03/23 03:14:09;;;;;;;40.95;19.63;;;;;;;3.17;76.06;102723.22;5042120;28;20056;-77
2022/03/23 03:16:34;;;;;;;39.17;18.55;;;;;;;3.17;76.21;102730.09;5038565;28;20584;-77
2022/03/23 03:18:59;;;;;;;35.47;17.50;;;;;;;3.14;75.89;102733.59;5037166;28;20033;-76
2022/03/23 03:21:25;;;;;;;40.00;19.27;;;;;;;3.09;75.96;102733.78;5044028;28;20024;-77
2022/03/23 03:23:51;;;;;;;41.13;18.63;;;;;;;3.02;75.73;102729.78;5028596;28;20492;-76
2022/03/23 03:26:17;;;;;;;43.90;19.42;;;;;;;2.97;76.20;102731.69;5042592;28;20094;-77
2022/03/23 03:28:43;;;;;;;39.83;18.98;;;;;;;2.94;76.13;102734.38;5041407;28;20441;-77
2022/03/23 03:31:11;;;;;;;36.38;17.75;;;;;;;2.91;76.42;102735.31;5042895;28;20029;-76
2022/03/23 03:33:38;;;;;;;37.60;18.65;;;;;;;2.91;76.04;102739.63;5057671;28;20051;-76
2022/03/23 03:36:05;;;;;;;41.42;18.48;;;;;;;2.87;76.10;102741.44;5036299;28;20121;-77
2022/03/23 03:38:32;;;;;;;37.17;17.90;;;;;;;2.85;76.20;102739.84;5043021;28;20427;-76
2022/03/23 03:41:02;;;;;;;37.05;19.02;;;;;;;2.84;76.25;102739.00;5032006;28;20412;-76
2022/03/23 03:43:27;;;;;;;36.65;17.30;;;;;;;2.83;76.38;102739.91;5043465;28;20443;-77
2022/03/23 03:45:54;;;;;;;44.50;19.00;;;;;;;2.82;76.38;102738.22;5026551;28;21413;-76
2022/03/23 03:48:19;;;;;;;41.15;18.77;;;;;;;2.81;76.50;102734.00;5025722;28;20064;-77
2022/03/23 03:50:46;;;;;;;36.20;18.50;;;;;;;2.76;76.08;102746.16;5042036;28;20128;-77
2022/03/23 03:53:11;;;;;;;33.60;17.88;;;;;;;2.70;76.59;102741.25;5042379;28;20036;-77
2022/03/23 03:55:38;;;;;;;36.70;18.10;;;;;;;2.65;76.75;102754.22;5023498;28;20039;-77
2022/03/23 03:58:04;;;;;;;36.00;18.65;;;;;;;2.63;76.85;102750.06;5039699;28;20111;-77
2022/03/23 04:00:31;;;;;;;34.95;19.27;;;;;;;2.62;77.04;102751.78;5058240;28;20119;-76
2022/03/23 04:02:57;;;;;;;41.05;19.95;;;;;;;2.62;76.92;102756.06;5041781;28;20040;-77
2022/03/23 04:05:22;;;;;;;43.55;18.50;;;;;;;2.62;77.28;102749.22;5027863;28;20020;-77
2022/03/23 04:07:48;;;;;;;36.67;18.27;;;;;;;2.60;77.13;102753.59;5041045;28;20789;-77
2022/03/23 04:10:14;;;;;;;35.65;17.58;;;;;;;2.55;77.01;102759.75;5024375;28;20389;-77
2022/03/23 04:12:41;;;;;;;37.97;18.50;;;;;;;2.51;77.40;102759.03;5039286;28;20078;-77
2022/03/23 04:15:06;;;;;;;41.95;19.92;;;;;;;2.46;77.36;102748.94;5040494;28;20115;-76
2022/03/23 04:17:32;;;;;;;42.22;18.92;;;;;;;2.46;77.68;102755.78;5023252;28;20484;-76
2022/03/23 04:19:58;;;;;;;43.78;19.17;;;;;;;2.45;77.76;102754.13;5036748;28;20036;-77
2022/03/23 04:22:23;;;;;;;37.83;19.20;;;;;;;2.43;77.84;102745.66;5040746;28;20082;-77
2022/03/23 04:24:49;;;;;;;41.88;20.73;;;;;;;2.43;77.60;102754.19;5039328;28;20237;-76
2022/03/23 04:27:15;;;;;;;35.40;17.15;;;;;;;2.41;77.83;102750.84;5026237;28;20033;-76
2022/03/23 04:29:40;;;;;;;41.25;18.90;;;;;;;2.39;77.65;102750.06;5057099;28;20569;-77
2022/03/23 04:32:07;;;;;;;39.42;18.45;;;;;;;2.38;77.92;102756.06;5060340;28;20039;-76
2022/03/23 04:34:34;;;;;;;40.20;18.70;;;;;;;2.34;77.74;102757.91;5041566;28;20161;-77
2022/03/23 04:37:00;;;;;;;37.33;17.95;;;;;;;2.30;77.64;102765.78;5029432;28;20043;-77
2022/03/23 04:39:26;;;;;;;41.47;18.92;;;;;;;2.24;77.75;102765.97;5037866;28;20426;-77
2022/03/23 04:41:51;;;;;;;41.42;19.20;;;;;;;2.20;78.10;102764.41;5024809;28;20025;-76
2022/03/23 04:44:17;;;;;;;41.03;17.77;;;;;;;2.18;78.08;102764.44;5038324;28;20408;-77
2022/03/23 04:46:42;;;;;;;38.13;19.30;;;;;;;2.17;78.10;102765.34;5022067;28;20118;-76
2022/03/23 04:49:08;;;;;;;36.92;18.70;;;;;;;2.17;78.58;102775.59;5041956;28;20040;-78
2022/03/23 04:51:34;;;;;;;43.30;19.80;;;;;;;2.18;78.12;102772.13;5036785;28;20893;-76
2022/03/23 04:54:02;;;;;;;41.90;18.92;;;;;;;2.17;78.04;102772.19;5022241;28;20115;-76
2022/03/23 04:56:28;;;;;;;41.80;19.38;;;;;;;2.16;78.27;102776.47;5056865;28;20040;-77
2022/03/23 04:58:54;;;;;;;34.95;17.70;;;;;;;2.09;78.41;102786.09;5039193;28;20461;-76
2022/03/23 05:01:21;;;;;;;41.83;19.77;;;;;;;2.04;78.42;102776.91;5038701;28;20331;-76
2022/03/23 05:03:46;;;;;;;38.75;19.77;;;;;;;1.96;78.50;102777.16;5039821;28;20036;-76
2022/03/23 05:06:12;;;;;;;40.35;20.15;;;;;;;1.88;79.04;102781.69;5042639;28;20101;-76
2022/03/23 05:08:37;;;;;;;43.30;19.02;;;;;;;1.81;79.37;102782.78;5035937;28;20037;-76
2022/03/23 05:11:03;;;;;;;42.88;19.83;;;;;;;1.78;79.81;102788.00;5023903;28;20032;-76
2022/03/23 05:13:28;;;;;;;39.22;19.45;;;;;;;1.73;79.65;102786.44;5026655;28;20497;-76
2022/03/23 05:15:54;;;;;;;38.38;19.20;;;;;;;1.72;79.93;102784.75;5041276;28;20032;-76
2022/03/23 05:18:19;;;;;;;40.72;18.30;;;;;;;1.69;80.26;102789.97;5040528;28;20370;-76
2022/03/23 05:20:45;;;;;;;38.58;18.27;;;;;;;1.67;80.15;102790.91;5021751;28;20039;-76
2022/03/23 05:23:10;;;;;;;43.92;17.27;;;;;;;1.63;80.62;102789.34;5049132;28;20021;-76
2022/03/23 05:25:36;;;;;;;43.80;18.40;;;;;;;1.59;80.50;102783.47;5042751;28;20119;-76
2022/03/23 05:28:01;;;;;;;38.72;18.42;;;;;;;1.54;81.14;102786.19;5044088;28;20047;-79
2022/03/23 05:30:27;;;;;;;42.70;18.55;;;;;;;1.55;81.49;102787.03;5039506;28;20037;-76
2022/03/23 05:32:52;;;;;;;38.92;20.05;;;;;;;1.54;81.33;102778.53;5030217;28;20468;-76
2022/03/23 05:35:18;;;;;;;41.17;19.52;;;;;;;1.55;81.46;102781.91;5028807;28;20508;-77
2022/03/23 05:37:43;;;;;;;38.58;19.60;;;;;;;1.57;81.44;102786.97;5025717;28;20036;-76
2022/03/23 05:40:10;;;;;;;41.92;20.15;;;;;;;1.57;81.50;102789.53;5046213;28;20066;-76
2022/03/23 05:42:36;;;;;;;44.15;19.83;;;;;;;1.56;81.31;102788.69;5041875;28;20055;-76
2022/03/23 05:45:02;;;;;;;43.47;20.13;;;;;;;1.57;81.68;102785.25;5060599;28;20460;-76
2022/03/23 05:47:27;;;;;;;43.05;21.05;;;;;;;1.60;81.03;102787.72;5059538;28;20033;-76
2022/03/23 05:49:53;;;;;;;42.95;19.77;;;;;;;1.62;81.04;102788.50;5041258;28;20571;-75
2022/03/23 05:52:18;;;;;;;41.47;19.50;;;;;;;1.64;80.86;102788.44;5029471;28;20041;-75
2022/03/23 05:54:44;;;;;;;45.22;20.48;;;;;;;1.63;80.96;102792.72;5041444;28;20463;-75
2022/03/23 05:57:09;;;;;;;43.13;20.27;;;;;;;1.65;80.77;102790.94;5041620;28;20074;-76
2022/03/23 05:59:35;;;;;;;49.03;20.10;;;;;;;1.67;81.02;102788.34;5044528;28;20495;-76
2022/03/23 06:02:00;;;;;;;44.22;21.08;;;;;;;1.69;80.74;102795.06;5044055;28;20070;-75
2022/03/23 06:04:26;;;;;;;42.28;19.80;;;;;;;1.71;80.79;102800.16;5038963;28;20036;-76
2022/03/23 06:06:55;;;;;;;53.92;21.25;;;;;;;1.71;80.64;102795.88;5026906;28;20036;-75
2022/03/23 06:09:21;;;;;;;44.10;21.20;;;;;;;1.72;80.60;102795.00;5045055;28;20043;-76
2022/03/23 06:11:47;;;;;;;40.15;19.52;;;;;;;1.76;80.75;102800.84;5043633;28;20044;-76
2022/03/23 06:14:13;;;;;;;48.53;21.60;;;;;;;1.78;80.81;102793.94;5030540;28;20558;-76
2022/03/23 06:16:38;;;;;;;45.55;19.98;;;;;;;1.80;80.87;102794.72;5059999;28;20127;-76
2022/03/23 06:19:03;;;;;;;42.05;20.95;;;;;;;1.83;80.89;102802.31;5040497;28;20085;-76
2022/03/23 06:21:29;;;;;;;43.00;20.63;;;;;;;1.84;81.31;102801.41;5045253;28;20028;-75
2022/03/23 06:23:54;;;;;;;50.33;22.20;;;;;;;1.87;81.18;102805.63;5042560;28;20567;-76
2022/03/23 06:26:20;;;;;;;44.40;21.92;;;;;;;1.89;81.66;102808.97;5044041;28;20032;-75
2022/03/23 06:28:45;;;;;;;46.45;22.05;;;;;;;1.92;82.05;102807.13;5028539;28;20035;-76
2022/03/23 06:31:11;;;;;;;82.60;21.98;;;;;;;1.97;82.40;102808.69;5043182;28;20051;-76
2022/03/23 06:33:37;;;;;;;72.93;24.00;;;;;;;2.02;82.75;102820.47;5042358;28;20450;-76
2022/03/23 06:36:03;;;;;;;77.38;22.02;;;;;;;2.06;82.56;102818.63;5057473;28;20039;-75
2022/03/23 06:38:29;;;;;;;55.53;22.35;;;;;;;2.14;82.57;102812.34;5039541;28;20036;-76
2022/03/23 06:40:54;;;;;;;52.28;21.88;;;;;;;2.25;82.34;102821.41;5032460;28;20032;-75
2022/03/23 06:43:20;;;;;;;57.28;22.70;;;;;;;2.40;82.47;102817.50;5041808;28;20055;-75
2022/03/23 06:45:46;;;;;;;51.67;22.33;;;;;;;2.60;81.74;102822.75;5040202;28;20442;-76
2022/03/23 06:48:11;;;;;;;47.30;21.73;;;;;;;2.95;81.53;102820.59;5054298;28;20044;-76
2022/03/23 06:50:37;;;;;;;48.45;23.67;;;;;;;3.51;80.96;102822.72;5041600;28;20040;-76
2022/03/23 06:53:03;;;;;;;44.65;22.20;;;;;;;4.35;78.99;102822.75;5045054;28;20023;-76
2022/03/23 06:55:29;;;;;;;43.83;20.40;;;;;;;5.25;75.78;102815.25;5040349;28;20040;-76
2022/03/23 06:57:55;;;;;;;45.42;22.25;;;;;;;6.09;72.07;102817.22;5044010;28;20037;-76
2022/03/23 07:00:21;;;;;;;43.25;20.70;;;;;;;6.78;69.25;102808.50;5033039;28;20047;-76
2022/03/23 07:02:48;;;;;;;41.90;22.10;;;;;;;7.44;66.52;102816.09;5025705;28;20037;-76
2022/03/23 07:05:16;;;;;;;48.45;21.85;;;;;;;7.95;63.52;102822.63;5040974;28;20068;-76
2022/03/23 07:10:26;;;;;;;45.85;21.52;;;;;;;8.83;60.12;102821.72;5041143;28;20593;-76
2022/03/23 07:12:52;;;;;;;39.88;19.58;;;;;;;9.00;59.99;102818.09;5037925;28;20160;-76
2022/03/23 07:15:17;;;;;;;41.72;20.92;;;;;;;9.33;59.52;102828.06;5040818;28;20024;-76
2022/03/23 07:17:43;;;;;;;43.72;20.15;;;;;;;9.82;56.20;102827.47;5038019;28;20426;-76
2022/03/23 07:20:09;;;;;;;43.15;21.80;;;;;;;10.14;53.76;102824.47;5042366;28;20101;-76
2022/03/23 07:22:34;;;;;;;40.40;20.70;;;;;;;10.25;53.85;102829.75;5060926;28;20028;-76
2022/03/23 07:25:00;;;;;;;39.45;20.13;;;;;;;10.35;53.98;102831.75;5059013;28;20039;-76
2022/03/23 07:27:26;;;;;;;41.40;21.05;;;;;;;10.67;52.75;102830.34;5026353;28;20522;-77
2022/03/23 07:29:51;;;;;;;38.67;18.92;;;;;;;11.04;51.93;102826.94;5060773;28;20028;-76
2022/03/23 07:32:17;;;;;;;37.92;18.98;;;;;;;11.10;51.73;102829.09;5039188;28;20615;-76
2022/03/23 07:34:42;;;;;;;32.53;18.20;;;;;;;11.33;50.17;102835.22;5053903;28;20457;-76
2022/03/23 07:37:08;;;;;;;38.28;19.95;;;;;;;11.44;51.03;102830.06;5037199;28;20044;-76
2022/03/23 07:39:33;;;;;;;36.47;18.70;;;;;;;11.57;49.45;102824.81;5043688;28;20039;-77
2022/03/23 07:42:00;;;;;;;39.60;20.15;;;;;;;11.70;48.15;102832.53;5043833;28;20039;-76
2022/03/23 07:44:25;;;;;;;39.97;18.77;;;;;;;11.60;47.93;102829.78;5035362;28;20881;-76
2022/03/23 07:46:52;;;;;;;36.85;19.42;;;;;;;11.85;48.15;102831.38;5024002;28;20306;-76
2022/03/23 07:49:17;;;;;;;33.30;17.65;;;;;;;12.24;47.50;102837.16;5024197;28;20033;-77
2022/03/23 07:51:43;;;;;;;34.72;19.52;;;;;;;12.38;47.31;102830.06;5056233;28;20032;-77
2022/03/23 07:54:09;;;;;;;36.35;18.65;;;;;;;12.46;48.18;102836.31;5028910;28;20123;-76
2022/03/23 07:56:34;;;;;;;37.70;19.20;;;;;;;12.80;47.33;102838.06;5036018;28;20500;-76
2022/03/23 07:59:00;;;;;;;30.42;18.00;;;;;;;12.59;47.66;102846.59;5041370;28;20037;-76
2022/03/23 08:01:25;;;;;;;33.00;18.60;;;;;;;12.84;47.32;102842.88;5048234;28;20032;-77
2022/03/23 08:03:51;;;;;;;33.40;17.48;;;;;;;12.79;46.79;102852.84;5054502;28;20032;-77
2022/03/23 08:06:16;;;;;;;36.28;17.70;;;;;;;13.17;47.36;102854.19;5037025;28;20037;-76
2022/03/23 08:08:42;;;;;;;30.05;17.50;;;;;;;13.31;46.38;102850.50;5038018;28;20025;-77
2022/03/23 08:11:07;;;;;;;32.50;17.45;;;;;;;13.72;45.00;102856.72;5056819;28;20503;-77
2022/03/23 08:13:33;;;;;;;30.52;16.85;;;;;;;13.70;46.13;102853.41;5040249;28;20030;-77
2022/03/23 08:16:00;;;;;;;32.25;18.27;;;;;;;13.79;45.35;102854.44;5042653;28;20040;-76
2022/03/23 08:18:27;;;;;;;34.28;18.38;;;;;;;13.84;44.56;102852.25;5054860;28;20039;-77
2022/03/23 08:20:52;;;;;;;36.38;18.42;;;;;;;13.12;46.70;102855.50;5056325;28;20107;-77
2022/03/23 08:23:19;;;;;;;31.63;18.85;;;;;;;13.35;45.90;102857.09;5058275;28;20052;-77
2022/03/23 08:25:45;;;;;;;32.50;17.98;;;;;;;13.60;45.86;102850.72;5040820;28;20033;-77
2022/03/23 08:28:12;;;;;;;34.58;18.02;;;;;;;14.11;45.58;102849.13;5056993;28;20101;-77
2022/03/23 08:30:38;;;;;;;34.10;18.15;;;;;;;14.27;44.63;102851.25;5061592;28;20484;-77
2022/03/23 08:33:04;;;;;;;31.20;18.17;;;;;;;14.44;44.02;102849.81;5040149;28;20028;-77
2022/03/23 08:35:30;;;;;;;38.30;19.00;;;;;;;14.09;45.54;102850.19;5052705;28;20668;-77
2022/03/23 08:37:57;;;;;;;33.78;18.35;;;;;;;14.24;44.25;102848.06;5040574;28;20111;-77
2022/03/23 08:40:23;;;;;;;35.92;19.75;;;;;;;14.49;44.35;102842.41;5036440;28;20024;-77
2022/03/23 08:42:49;;;;;;;31.30;18.15;;;;;;;14.77;42.91;102853.94;5040142;28;20034;-76
2022/03/23 08:45:15;;;;;;;38.03;18.88;;;;;;;14.97;43.00;102853.97;5038092;28;20032;-77
2022/03/23 08:47:41;;;;;;;34.38;18.35;;;;;;;15.32;41.59;102845.59;5024236;28;20086;-77
2022/03/23 08:50:09;;;;;;;33.97;18.95;;;;;;;15.44;41.30;102845.47;5052302;28;20066;-77
2022/03/23 08:52:37;;;;;;;36.28;19.77;;;;;;;15.48;41.58;102841.59;5028569;28;20120;-77
2022/03/23 08:55:07;;;;;;;33.50;17.83;;;;;;;15.75;41.37;102843.56;5037642;28;20109;-76
2022/03/23 08:57:33;;;;;;;34.88;19.20;;;;;;;15.96;40.73;102841.56;5045250;28;20036;-77
2022/03/23 08:59:59;;;;;;;31.27;18.55;;;;;;;15.72;40.41;102849.84;5061362;28;20035;-78
2022/03/23 09:02:24;;;;;;;38.03;19.25;;;;;;;15.84;40.50;102845.31;5031820;28;20063;-78
2022/03/23 09:04:50;;;;;;;36.40;20.02;;;;;;;15.65;40.78;102847.91;5044170;28;20044;-78
2022/03/23 09:07:15;;;;;;;37.78;19.17;;;;;;;15.37;41.35;102850.44;5032063;28;20031;-78
2022/03/23 09:09:41;;;;;;;36.50;19.73;;;;;;;15.53;42.25;102845.47;5046421;28;20032;-78
2022/03/23 09:12:07;;;;;;;38.95;19.38;;;;;;;15.56;41.29;102847.81;5034803;28;20039;-78
2022/03/23 09:14:32;;;;;;;40.67;20.45;;;;;;;15.65;41.71;102837.47;5065355;28;20081;-79
2022/03/23 09:16:58;;;;;;;36.88;19.70;;;;;;;15.77;41.34;102834.59;5037658;28;20041;-78
2022/03/23 09:19:23;;;;;;;41.17;21.02;;;;;;;15.86;41.50;102834.69;5026705;28;20032;-79
2022/03/23 09:21:50;;;;;;;39.72;20.35;;;;;;;15.82;39.52;102838.56;5060967;28;20025;-79
2022/03/23 09:24:19;;;;;;;37.60;20.20;;;;;;;15.56;41.05;102841.75;5035921;28;20051;-78
2022/03/23 09:26:45;;;;;;;37.83;19.63;;;;;;;15.60;40.98;102844.91;5060330;28;20025;-78
2022/03/23 09:29:10;;;;;;;37.95;20.15;;;;;;;15.16;41.28;102842.72;5064690;28;20087;-79
2022/03/23 09:31:36;;;;;;;35.55;19.45;;;;;;;15.10;41.07;102843.25;5048185;28;20503;-78
2022/03/23 09:34:03;;;;;;;33.90;19.60;;;;;;;15.23;41.08;102833.38;5052100;28;20033;-79
2022/03/23 09:39:13;;;;;;;38.47;20.77;;;;;;;15.32;40.58;102831.72;5047870;28;20492;-80
2022/03/23 09:41:40;;;;;;;42.75;20.55;;;;;;;15.36;39.98;102835.72;5048746;28;20036;-78
2022/03/23 09:44:06;;;;;;;39.78;19.50;;;;;;;15.46;40.19;102838.31;5049054;28;20044;-78
2022/03/23 09:46:33;;;;;;;38.08;20.48;;;;;;;15.16;40.94;102827.88;5047825;28;20047;-78
2022/03/23 09:48:59;;;;;;;40.88;21.42;;;;;;;15.41;39.04;102828.28;5047969;28;20042;-78
2022/03/23 09:51:25;;;;;;;37.70;20.40;;;;;;;15.08;37.23;102826.91;5032027;28;20028;-80
2022/03/23 09:53:52;;;;;;;36.47;18.75;;;;;;;15.31;35.87;102827.44;5044304;28;20036;-80
2022/03/23 09:56:17;;;;;;;36.00;20.55;;;;;;;15.09;38.26;102829.38;5042801;28;20155;-79
2022/03/23 09:58:43;;;;;;;37.65;18.77;;;;;;;15.24;37.60;102828.94;5033772;28;20190;-80
2022/03/23 10:01:27;;;;;;;33.35;17.98;;;;;;;15.44;36.57;102825.38;5060923;28;20043;-78
2022/03/23 10:04:11;;;;;;;33.55;19.33;;;;;;;15.30;39.15;102831.03;5032286;28;20036;-79
2022/03/23 10:06:51;;;;;;;34.70;19.67;;;;;;;15.20;37.77;102828.44;5037796;28;20082;-80
2022/03/23 10:09:26;;;;;;;36.28;19.08;;;;;;;15.30;39.60;102833.66;5029233;28;20051;-79
2022/03/23 10:12:04;;;;;;;33.55;19.10;;;;;;;15.51;37.83;102836.13;5048167;28;20064;-79
2022/03/23 10:15:11;;;;;;;37.17;19.98;;;;;;;15.58;36.55;102824.97;5045910;28;20045;-79
2022/03/23 10:18:07;;;;;;;33.72;18.90;;;;;;;15.56;36.43;102829.50;5032803;28;20063;-79
2022/03/23 10:20:32;;;;;;;37.15;19.10;;;;;;;15.63;34.57;102827.13;5060628;28;20028;-80
2022/03/23 10:22:58;;;;;;;35.33;19.65;;;;;;;15.47;36.81;102834.75;5036702;28;20099;-79
2022/03/23 10:25:28;;;;;;;35.63;19.27;;;;;;;15.58;35.80;102824.13;5025231;28;20028;-79
2022/03/23 10:27:55;;;;;;;35.17;20.13;;;;;;;15.89;35.03;102829.19;5031172;28;20044;-80
2022/03/23 10:30:33;;;;;;;30.92;17.88;;;;;;;15.73;33.57;102825.38;5049994;28;20040;-79
2022/03/23 10:32:58;;;;;;;36.97;18.95;;;;;;;15.77;36.46;102825.91;5041036;28;20164;-79
2022/03/23 10:35:35;;;;;;;38.17;19.40;;;;;;;15.88;36.79;102823.13;5047840;28;20484;-79
2022/03/23 10:38:10;;;;;;;34.67;19.23;;;;;;;15.88;36.13;102819.69;5043681;28;20040;-79
2022/03/23 10:40:36;;;;;;;35.78;20.00;;;;;;;15.81;35.12;102819.44;5029129;28;20035;-79
2022/03/23 10:43:01;;;;;;;33.88;19.98;;;;;;;15.83;35.66;102814.88;5040461;28;20037;-79
2022/03/23 10:45:31;;;;;;;42.03;19.73;;;;;;;15.82;35.13;102812.41;5029029;28;20037;-80
2022/03/23 10:48:09;;;;;;;38.72;20.02;;;;;;;15.91;35.40;102808.94;5041294;28;20041;-80
2022/03/23 10:50:36;;;;;;;38.58;20.70;;;;;;;16.17;36.16;102805.69;5028028;28;20036;-80
2022/03/23 10:53:04;;;;;;;35.40;19.50;;;;;;;16.17;34.22;102811.75;5024291;28;20485;-80
2022/03/23 10:55:34;;;;;;;38.55;20.90;;;;;;;16.33;36.25;102811.09;5029550;28;20040;-80
2022/03/23 10:58:00;;;;;;;36.97;20.95;;;;;;;16.56;34.53;102803.69;5042845;28;20112;-79
2022/03/23 11:00:32;;;;;;;35.22;19.70;;;;;;;16.48;33.74;102799.19;5046229;28;20405;-80
2022/03/23 11:02:59;;;;;;;33.97;19.17;;;;;;;16.34;34.63;102800.50;5061114;28;20067;-78
2022/03/23 11:05:31;;;;;;;43.00;20.27;;;;;;;16.33;34.26;102804.09;5064698;28;20037;-79
2022/03/23 11:08:10;;;;;;;35.35;19.42;;;;;;;16.32;34.30;102799.81;5031172;28;20046;-79
2022/03/23 11:16:08;;;;;;;38.05;19.20;;;;;;;16.83;32.87;102805.47;5061693;28;20115;-81
2022/03/23 11:18:34;;;;;;;35.38;19.52;;;;;;;17.04;30.68;102797.31;5029247;28;20028;-79
2022/03/23 11:21:00;;;;;;;31.67;17.98;;;;;;;17.12;32.40;102796.56;5030701;28;20043;-79
2022/03/23 11:23:31;;;;;;;31.45;18.77;;;;;;;17.24;33.03;102797.97;5031493;28;20576;-81
2022/03/23 11:26:02;;;;;;;41.60;21.38;;;;;;;17.33;32.71;102793.63;5035666;28;20033;-80
2022/03/23 11:28:34;;;;;;;35.03;19.15;;;;;;;17.40;31.07;102785.97;5046891;28;20520;-80
2022/03/23 11:31:02;;;;;;;;;;;;;;;17.31;30.83;102790.34;5049088;28;20518;-80
2022/03/23 11:33:29;;;;;;;32.78;18.50;;;;;;;17.51;30.49;102790.97;5045125;28;19927;-81